Time;durP1;ratioP1;P1;durP2;ratioP2;P2;SDS_P1;SDS_P2;PMS_P1;PMS_P2;Temp;Humidity;BMP_temperature;BMP_pressure;BME280_temperature;BME280_humidity;BME280_pressure;Samples;Min_cycle;Max_cycle;Signal;HPM_P1;HPM_P2
2024/02/11 00:02:05;;;;;;;110.80;58.50;;;;;;;-128.00;-1.00;-1.00;105624;1256;1057817;-79
2024/02/11 00:04:32;;;;;;;125.70;61.80;;;;;;;-128.00;-1.00;-1.00;105550;1253;1004048;-79
2024/02/11 00:06:58;;;;;;;114.60;65.70;;;;;;;-128.00;-1.00;-1.00;105603;1255;1003808;-75
2024/02/11 00:09:24;;;;;;;113.80;62.70;;;;;;;-128.00;-1.00;-1.00;105585;1253;1004389;-75
2024/02/11 00:11:54;;;;;;;122.30;64.70;;;;;;;-128.00;-1.00;-1.00;105606;1257;1004455;-79
2024/02/11 00:14:20;;;;;;;124.50;72.30;;;;;;;-128.00;-1.00;-1.00;103168;1253;1058001;-75
2024/02/11 00:16:47;;;;;;;140.40;80.60;;;;;;;-128.00;-1.00;-1.00;103981;1255;1004761;-79
2024/02/11 00:19:16;;;;;;;126.10;75.20;;;;;;;-128.00;-1.00;-1.00;104045;1257;1005074;-75
2024/02/11 00:21:43;;;;;;;139.90;74.70;;;;;;;-128.00;-1.00;-1.00;105604;1253;1047075;-79
2024/02/11 00:24:10;;;;;;;142.90;81.80;;;;;;;-128.00;-1.00;-1.00;103668;1254;1004316;-78
2024/02/11 00:26:38;;;;;;;176.00;96.90;;;;;;;-128.00;-1.00;-1.00;103252;1254;1004509;-74
2024/02/11 00:29:04;;;;;;;161.70;88.70;;;;;;;-128.00;-1.00;-1.00;103286;1254;1005274;-79
2024/02/11 00:31:31;;;;;;;153.70;78.80;;;;;;;-128.00;-1.00;-1.00;103208;1253;1005390;-74
2024/02/11 00:33:57;;;;;;;159.90;90.40;;;;;;;-128.00;-1.00;-1.00;103308;1253;1004054;-79
2024/02/11 00:36:23;;;;;;;165.10;90.40;;;;;;;-128.00;-1.00;-1.00;103239;1253;1004955;-75
2024/02/11 00:38:53;;;;;;;154.30;87.20;;;;;;;-128.00;-1.00;-1.00;103285;1253;1004930;-74
2024/02/11 00:41:20;;;;;;;156.80;91.80;;;;;;;-128.00;-1.00;-1.00;103304;1257;1059407;-75
2024/02/11 00:43:50;;;;;;;172.70;96.60;;;;;;;-128.00;-1.00;-1.00;103222;1253;1004371;-74
2024/02/11 00:46:16;;;;;;;144.20;78.50;;;;;;;-128.00;-1.00;-1.00;103249;1257;1047063;-74
2024/02/11 00:48:45;;;;;;;156.00;91.60;;;;;;;-128.00;-1.00;-1.00;103187;1254;1004647;-79
2024/02/11 00:51:12;;;;;;;;;;;;;;;-128.00;-1.00;-1.00;103244;1254;1058466;-74
2024/02/11 00:53:38;;;;;;;140.10;76.20;;;;;;;-128.00;-1.00;-1.00;104190;1253;1004619;-75
2024/02/11 00:56:05;;;;;;;120.20;74.10;;;;;;;-128.00;-1.00;-1.00;105666;1253;1004194;-79
2024/02/11 00:58:33;;;;;;;101.50;62.60;;;;;;;-128.00;-1.00;-1.00;105669;1253;1003880;-75
2024/02/11 01:01:04;;;;;;;95.70;55.90;;;;;;;-128.00;-1.00;-1.00;105636;1254;1003336;-79
2024/02/11 01:03:31;;;;;;;94.40;53.60;;;;;;;-128.00;-1.00;-1.00;103278;1257;1058278;-79
2024/02/11 01:05:57;;;;;;;94.20;54.40;;;;;;;-128.00;-1.00;-1.00;103299;1254;1005007;-79
2024/02/11 01:08:25;;;;;;;91.70;53.80;;;;;;;-128.00;-1.00;-1.00;103200;1254;1004326;-78
2024/02/11 01:10:52;;;;;;;115.90;66.70;;;;;;;-128.00;-1.00;-1.00;103270;1252;1005235;-80
2024/02/11 01:13:18;;;;;;;129.80;72.40;;;;;;;-128.00;-1.00;-1.00;103294;1254;1004691;-75
2024/02/11 01:15:46;;;;;;;118.90;67.00;;;;;;;-128.00;-1.00;-1.00;103268;1254;1004562;-79
2024/02/11 01:18:13;;;;;;;125.90;72.40;;;;;;;-128.00;-1.00;-1.00;103272;1254;1004413;-79
2024/02/11 01:20:42;;;;;;;109.70;64.00;;;;;;;-128.00;-1.00;-1.00;103262;1254;1005094;-79
2024/02/11 01:23:08;;;;;;;105.40;58.20;;;;;;;-128.00;-1.00;-1.00;105679;1255;1047774;-74
2024/02/11 01:25:35;;;;;;;102.10;53.30;;;;;;;-128.00;-1.00;-1.00;105620;1254;1004009;-75
2024/02/11 01:28:01;;;;;;;75.60;40.20;;;;;;;-128.00;-1.00;-1.00;105674;1252;1004753;-75
2024/02/11 01:30:28;;;;;;;68.00;37.30;;;;;;;-128.00;-1.00;-1.00;105650;1254;1004374;-79
2024/02/11 01:32:57;;;;;;;52.00;29.20;;;;;;;-128.00;-1.00;-1.00;105682;1253;1004724;-74
2024/02/11 01:35:25;;;;;;;46.90;27.20;;;;;;;-128.00;-1.00;-1.00;105681;1253;1046731;-79
2024/02/11 01:37:52;;;;;;;42.10;25.80;;;;;;;-128.00;-1.00;-1.00;105667;1253;1005068;-75
2024/02/11 01:40:19;;;;;;;40.00;24.20;;;;;;;-128.00;-1.00;-1.00;104477;1252;1004956;-75
2024/02/11 01:42:46;;;;;;;36.60;20.70;;;;;;;-128.00;-1.00;-1.00;103325;1253;1006556;-80
2024/02/11 01:45:14;;;;;;;35.50;21.20;;;;;;;-128.00;-1.00;-1.00;103291;1254;1003702;-81
2024/02/11 01:47:44;;;;;;;38.70;19.80;;;;;;;-128.00;-1.00;-1.00;103347;1253;1047727;-74
2024/02/11 01:50:15;;;;;;;28.90;16.40;;;;;;;-128.00;-1.00;-1.00;103270;1252;1063588;-74
2024/02/11 01:52:41;;;;;;;33.80;17.20;;;;;;;-128.00;-1.00;-1.00;103269;1254;1059867;-79
2024/02/11 01:55:10;;;;;;;33.50;16.00;;;;;;;-128.00;-1.00;-1.00;103276;1254;1004699;-79
2024/02/11 01:57:37;;;;;;;37.10;18.80;;;;;;;-128.00;-1.00;-1.00;103270;1256;1003593;-74
2024/02/11 02:00:04;;;;;;;33.00;17.60;;;;;;;-128.00;-1.00;-1.00;103300;1254;1005636;-80
2024/02/11 02:02:31;;;;;;;35.90;17.20;;;;;;;-128.00;-1.00;-1.00;103308;1254;1005427;-74
2024/02/11 02:04:58;;;;;;;37.30;18.20;;;;;;;-128.00;-1.00;-1.00;103322;1254;1005069;-79
2024/02/11 02:07:25;;;;;;;32.50;15.10;;;;;;;-128.00;-1.00;-1.00;103331;1254;1005392;-75
2024/02/11 02:09:52;;;;;;;28.20;14.80;;;;;;;-128.00;-1.00;-1.00;103284;1253;1004058;-79
2024/02/11 02:12:20;;;;;;;33.70;15.60;;;;;;;-128.00;-1.00;-1.00;103342;1255;1005351;-75
2024/02/11 02:14:50;;;;;;;38.90;16.60;;;;;;;-128.00;-1.00;-1.00;103226;1253;1003805;-79
2024/02/11 02:17:16;;;;;;;31.10;16.10;;;;;;;-128.00;-1.00;-1.00;103215;1254;1058810;-75
2024/02/11 02:19:43;;;;;;;34.90;17.10;;;;;;;-128.00;-1.00;-1.00;103227;1254;1005196;-75
2024/02/11 02:22:10;;;;;;;36.70;14.90;;;;;;;-128.00;-1.00;-1.00;103149;1254;1004276;-79
2024/02/11 02:24:37;;;;;;;25.20;12.10;;;;;;;-128.00;-1.00;-1.00;105600;1253;1004129;-74
2024/02/11 02:27:05;;;;;;;25.20;13.00;;;;;;;-128.00;-1.00;-1.00;105297;1254;1004052;-75
2024/02/11 02:29:32;;;;;;;24.80;13.80;;;;;;;-128.00;-1.00;-1.00;103151;1254;1058286;-79
2024/02/11 02:31:58;;;;;;;30.50;15.50;;;;;;;-128.00;-1.00;-1.00;103146;1253;1004810;-79
2024/02/11 02:34:25;;;;;;;23.20;13.60;;;;;;;-128.00;-1.00;-1.00;103080;1253;1004207;-79
2024/02/11 02:36:51;;;;;;;23.50;12.50;;;;;;;-128.00;-1.00;-1.00;103192;1254;1005327;-75
2024/02/11 02:39:18;;;;;;;18.70;10.40;;;;;;;-128.00;-1.00;-1.00;103166;1254;1004270;-79
2024/02/11 02:41:44;;;;;;;26.20;12.60;;;;;;;-128.00;-1.00;-1.00;103263;1257;1004890;-79
2024/02/11 02:44:10;;;;;;;30.70;13.10;;;;;;;-128.00;-1.00;-1.00;103238;1254;1004413;-74
2024/02/11 02:46:37;;;;;;;25.70;12.70;;;;;;;-128.00;-1.00;-1.00;103214;1254;1004458;-75
2024/02/11 02:49:03;;;;;;;23.90;11.60;;;;;;;-128.00;-1.00;-1.00;103210;1254;1005326;-74
2024/02/11 02:51:31;;;;;;;24.70;13.30;;;;;;;-128.00;-1.00;-1.00;103275;1254;1004443;-74
2024/02/11 02:53:57;;;;;;;33.10;17.10;;;;;;;-128.00;-1.00;-1.00;104616;1252;1004491;-79
2024/02/11 02:56:27;;;;;;;26.90;13.30;;;;;;;-128.00;-1.00;-1.00;105639;1252;1003796;-74
2024/02/11 02:58:53;;;;;;;21.50;11.10;;;;;;;-128.00;-1.00;-1.00;105677;1252;1045106;-80
2024/02/11 03:01:22;;;;;;;19.10;10.40;;;;;;;-128.00;-1.00;-1.00;105688;1254;1004263;-79
2024/02/11 03:03:49;;;;;;;23.90;10.60;;;;;;;-128.00;-1.00;-1.00;105656;1252;1061642;-75
2024/02/11 03:06:15;;;;;;;19.70;11.10;;;;;;;-128.00;-1.00;-1.00;105660;1252;1004753;-75
2024/02/11 03:08:42;;;;;;;22.60;10.30;;;;;;;-128.00;-1.00;-1.00;105653;1253;1005254;-75
2024/02/11 03:11:08;;;;;;;18.20;9.60;;;;;;;-128.00;-1.00;-1.00;105628;1252;1004597;-75
2024/02/11 03:13:35;;;;;;;22.30;12.60;;;;;;;-128.00;-1.00;-1.00;105585;1253;1004230;-79
2024/02/11 03:16:01;;;;;;;20.50;12.00;;;;;;;-128.00;-1.00;-1.00;105621;1253;1004454;-75
2024/02/11 03:18:28;;;;;;;31.20;13.70;;;;;;;-128.00;-1.00;-1.00;105580;1255;1004918;-79
2024/02/11 03:20:54;;;;;;;56.50;34.70;;;;;;;-128.00;-1.00;-1.00;105553;1252;1004684;-74
2024/02/11 03:23:20;;;;;;;40.10;23.00;;;;;;;-128.00;-1.00;-1.00;104558;1254;1005201;-79
2024/02/11 03:25:47;;;;;;;42.40;27.20;;;;;;;-128.00;-1.00;-1.00;103320;1253;1004324;-75
2024/02/11 03:28:13;;;;;;;37.20;19.60;;;;;;;-128.00;-1.00;-1.00;103329;1254;1004742;-79
2024/02/11 03:30:40;;;;;;;32.90;18.90;;;;;;;-128.00;-1.00;-1.00;103274;1252;1004012;-79
2024/02/11 03:33:06;;;;;;;30.30;16.10;;;;;;;-128.00;-1.00;-1.00;103366;1253;1005862;-75
2024/02/11 03:35:32;;;;;;;29.90;17.80;;;;;;;-128.00;-1.00;-1.00;103250;1254;1047608;-79
2024/02/11 03:37:59;;;;;;;24.40;14.40;;;;;;;-128.00;-1.00;-1.00;103287;1254;1005035;-79
2024/02/11 03:40:27;;;;;;;25.70;14.40;;;;;;;-128.00;-1.00;-1.00;103204;1254;1003691;-79
2024/02/11 03:42:53;;;;;;;34.60;14.00;;;;;;;-128.00;-1.00;-1.00;103289;1254;1004393;-79
2024/02/11 03:45:20;;;;;;;25.50;14.30;;;;;;;-128.00;-1.00;-1.00;103224;1253;1005182;-74
2024/02/11 03:47:49;;;;;;;35.00;14.40;;;;;;;-128.00;-1.00;-1.00;103339;1252;1004076;-75
2024/02/11 03:50:15;;;;;;;;;;;;;;;-128.00;-1.00;-1.00;103323;1253;1062089;-79
2024/02/11 03:52:42;;;;;;;21.40;12.70;;;;;;;-128.00;-1.00;-1.00;103297;1253;1004618;-74
2024/02/11 03:55:11;;;;;;;27.60;15.40;;;;;;;-128.00;-1.00;-1.00;103306;1253;1004282;-79
2024/02/11 03:57:38;;;;;;;28.40;19.70;;;;;;;-128.00;-1.00;-1.00;103281;1252;1045760;-79
2024/02/11 04:03:09;;;;;;;30.40;17.50;;;;;;;-128.00;-1.00;-1.00;105388;1252;1061133;-79
2024/02/11 04:05:39;;;;;;;31.20;19.70;;;;;;;-128.00;-1.00;-1.00;105617;1252;1058647;-75
2024/02/11 04:08:08;;;;;;;32.20;16.20;;;;;;;-128.00;-1.00;-1.00;105637;1253;1059643;-74
2024/02/11 04:10:36;;;;;;;25.70;15.50;;;;;;;-128.00;-1.00;-1.00;105635;1252;1046226;-79
2024/02/11 04:13:02;;;;;;;33.30;17.00;;;;;;;-128.00;-1.00;-1.00;105578;1252;1004760;-79
2024/02/11 04:15:30;;;;;;;28.40;16.90;;;;;;;-128.00;-1.00;-1.00;103184;1254;1004662;-80
2024/02/11 04:18:07;;;;;;;27.90;15.80;;;;;;;-128.00;-1.00;-1.00;105587;1254;1005172;-75
2024/02/11 04:20:33;;;;;;;35.10;16.20;;;;;;;-128.00;-1.00;-1.00;105583;1253;1059155;-79
2024/02/11 04:23:00;;;;;;;31.90;19.70;;;;;;;-128.00;-1.00;-1.00;105620;1252;1003869;-74
2024/02/11 04:25:32;;;;;;;29.40;15.80;;;;;;;-128.00;-1.00;-1.00;105670;1252;1003909;-75
2024/02/11 04:28:08;;;;;;;32.40;15.90;;;;;;;-128.00;-1.00;-1.00;103468;1252;1060805;-74
2024/02/11 04:30:37;;;;;;;31.10;18.50;;;;;;;-128.00;-1.00;-1.00;103314;1255;1060164;-75
2024/02/11 04:33:04;;;;;;;;;;;;;;;-128.00;-1.00;-1.00;103231;1253;1061813;-74
2024/02/11 04:35:31;;;;;;;31.50;17.00;;;;;;;-128.00;-1.00;-1.00;103217;1252;1004499;-75
2024/02/11 04:37:59;;;;;;;33.00;19.10;;;;;;;-128.00;-1.00;-1.00;103294;1253;1004169;-78
2024/02/11 04:40:25;;;;;;;34.10;20.10;;;;;;;-128.00;-1.00;-1.00;105649;1252;1004372;-74
2024/02/11 04:42:58;;;;;;;46.70;23.00;;;;;;;-128.00;-1.00;-1.00;105657;1252;1004203;-79
2024/02/11 04:45:25;;;;;;;38.20;22.60;;;;;;;-128.00;-1.00;-1.00;105524;1253;1060262;-79
2024/02/11 04:47:59;;;;;;;34.90;20.10;;;;;;;-128.00;-1.00;-1.00;105619;1252;1004263;-74
2024/02/11 04:50:26;;;;;;;38.00;24.30;;;;;;;-128.00;-1.00;-1.00;105618;1252;1047379;-79
2024/02/11 04:52:56;;;;;;;38.20;21.10;;;;;;;-128.00;-1.00;-1.00;105702;1253;1004254;-79
2024/02/11 04:55:27;;;;;;;33.00;19.10;;;;;;;-128.00;-1.00;-1.00;105671;1252;1057862;-75
2024/02/11 04:58:00;;;;;;;28.00;16.80;;;;;;;-128.00;-1.00;-1.00;105644;1252;1059558;-79
2024/02/11 05:00:27;;;;;;;31.20;15.30;;;;;;;-128.00;-1.00;-1.00;105643;1252;1044938;-79
2024/02/11 05:03:03;;;;;;;37.00;20.60;;;;;;;-128.00;-1.00;-1.00;105556;1253;1004240;-75
2024/02/11 05:05:30;;;;;;;42.50;23.40;;;;;;;-128.00;-1.00;-1.00;105653;1252;1061398;-79
2024/02/11 05:07:57;;;;;;;41.00;23.10;;;;;;;-128.00;-1.00;-1.00;105688;1252;1004820;-79
2024/02/11 05:10:24;;;;;;;35.90;22.10;;;;;;;-128.00;-1.00;-1.00;105634;1253;1004472;-75
2024/02/11 05:12:50;;;;;;;33.80;18.10;;;;;;;-128.00;-1.00;-1.00;105587;1253;1003850;-79
2024/02/11 05:15:20;;;;;;;32.50;19.70;;;;;;;-128.00;-1.00;-1.00;105260;1254;1004256;-75
2024/02/11 05:17:49;;;;;;;38.30;20.20;;;;;;;-128.00;-1.00;-1.00;103201;1253;1061172;-79
2024/02/11 05:20:23;;;;;;;32.50;19.50;;;;;;;-128.00;-1.00;-1.00;103223;1253;1057245;-75
2024/02/11 05:22:49;;;;;;;31.50;17.40;;;;;;;-128.00;-1.00;-1.00;103282;1253;1059591;-79
2024/02/11 05:25:19;;;;;;;27.70;17.70;;;;;;;-128.00;-1.00;-1.00;103327;1256;1004058;-79
2024/02/11 05:27:53;;;;;;;29.90;15.70;;;;;;;-128.00;-1.00;-1.00;103344;1253;1046964;-79
2024/02/11 05:30:20;;;;;;;29.60;15.70;;;;;;;-128.00;-1.00;-1.00;103289;1256;1061372;-74
2024/02/11 05:32:47;;;;;;;30.60;14.40;;;;;;;-128.00;-1.00;-1.00;103301;1253;1008209;-75
2024/02/11 05:35:17;;;;;;;27.50;16.40;;;;;;;-128.00;-1.00;-1.00;103309;1253;1004010;-75
2024/02/11 05:37:46;;;;;;;41.10;22.70;;;;;;;-128.00;-1.00;-1.00;103299;1253;1045899;-75
2024/02/11 05:40:14;;;;;;;47.00;28.30;;;;;;;-128.00;-1.00;-1.00;103338;1253;1047020;-79
2024/02/11 05:42:42;;;;;;;36.40;20.60;;;;;;;-128.00;-1.00;-1.00;103200;1253;1004073;-75
2024/02/11 05:45:09;;;;;;;29.20;15.20;;;;;;;-128.00;-1.00;-1.00;102993;1257;1058060;-79
2024/02/11 05:47:37;;;;;;;24.60;14.00;;;;;;;-128.00;-1.00;-1.00;103168;1253;1004747;-76
2024/02/11 05:50:05;;;;;;;12.00;9.50;;;;;;;-128.00;-1.00;-1.00;103170;1253;1004053;-79
2024/02/11 05:52:32;;;;;;;5.00;3.60;;;;;;;-128.00;-1.00;-1.00;103200;1253;1004124;-75
2024/02/11 05:54:59;;;;;;;9.80;4.20;;;;;;;-128.00;-1.00;-1.00;103177;1253;1005182;-75
2024/02/11 05:57:26;;;;;;;4.10;2.60;;;;;;;-128.00;-1.00;-1.00;103220;1253;1005030;-79
2024/02/11 05:59:52;;;;;;;4.30;3.10;;;;;;;-128.00;-1.00;-1.00;103175;1257;1004962;-79
2024/02/11 06:02:19;;;;;;;6.50;3.40;;;;;;;-128.00;-1.00;-1.00;103199;1253;1004923;-75
2024/02/11 06:04:45;;;;;;;5.20;3.10;;;;;;;-128.00;-1.00;-1.00;103235;1253;1004348;-75
2024/02/11 06:07:12;;;;;;;4.80;2.90;;;;;;;-128.00;-1.00;-1.00;104853;1253;1006853;-79
2024/02/11 06:09:39;;;;;;;5.50;2.70;;;;;;;-128.00;-1.00;-1.00;105571;1253;1003998;-79
2024/02/11 06:12:06;;;;;;;6.80;3.60;;;;;;;-128.00;-1.00;-1.00;105619;1252;1003908;-79
2024/02/11 06:14:33;;;;;;;9.70;5.10;;;;;;;-128.00;-1.00;-1.00;105585;1252;1003747;-79
2024/02/11 06:17:00;;;;;;;8.20;5.70;;;;;;;-128.00;-1.00;-1.00;105668;1253;1004667;-79
2024/02/11 06:19:27;;;;;;;9.50;5.70;;;;;;;-128.00;-1.00;-1.00;105630;1252;1003449;-79
2024/02/11 06:21:55;;;;;;;10.60;5.40;;;;;;;-128.00;-1.00;-1.00;105300;1252;1004031;-75
2024/02/11 06:24:24;;;;;;;11.20;5.90;;;;;;;-128.00;-1.00;-1.00;103288;1253;1004935;-79
2024/02/11 06:26:51;;;;;;;8.80;4.70;;;;;;;-128.00;-1.00;-1.00;103294;1253;1046197;-79
2024/02/11 06:29:18;;;;;;;9.70;5.30;;;;;;;-128.00;-1.00;-1.00;103385;1255;1004428;-79
2024/02/11 06:31:44;;;;;;;9.10;5.50;;;;;;;-128.00;-1.00;-1.00;103316;1253;1005365;-79
2024/02/11 06:34:11;;;;;;;7.10;5.50;;;;;;;-128.00;-1.00;-1.00;103288;1253;1005226;-80
2024/02/11 06:36:37;;;;;;;12.40;7.50;;;;;;;-128.00;-1.00;-1.00;103315;1253;1004756;-79
2024/02/11 06:39:10;;;;;;;16.10;9.40;;;;;;;-128.00;-1.00;-1.00;103342;1256;1004449;-80
2024/02/11 06:41:37;;;;;;;9.90;5.30;;;;;;;-128.00;-1.00;-1.00;103366;1253;1047117;-75
2024/02/11 06:44:06;;;;;;;8.00;4.50;;;;;;;-128.00;-1.00;-1.00;103323;1253;1005151;-78
2024/02/11 06:46:32;;;;;;;4.90;2.80;;;;;;;-128.00;-1.00;-1.00;103356;1253;1058543;-74
2024/02/11 06:49:02;;;;;;;3.30;2.00;;;;;;;-128.00;-1.00;-1.00;103359;1253;1004802;-79
2024/02/11 06:51:31;;;;;;;2.80;2.00;;;;;;;-128.00;-1.00;-1.00;103300;1253;1045830;-76
2024/02/11 06:53:57;;;;;;;4.70;2.10;;;;;;;-128.00;-1.00;-1.00;103320;1252;1046858;-75
2024/02/11 06:56:27;;;;;;;4.00;2.50;;;;;;;-128.00;-1.00;-1.00;103261;1253;1006439;-79
2024/02/11 06:58:57;;;;;;;3.10;2.00;;;;;;;-128.00;-1.00;-1.00;103334;1253;1058433;-79
2024/02/11 07:01:23;;;;;;;;;;;;;;;-128.00;-1.00;-1.00;103311;1253;1060763;-75
2024/02/11 07:03:51;;;;;;;4.40;2.20;;;;;;;-128.00;-1.00;-1.00;103277;1253;1004494;-75
2024/02/11 07:06:18;;;;;;;5.30;2.60;;;;;;;-128.00;-1.00;-1.00;103303;1253;1004996;-75
2024/02/11 07:08:44;;;;;;;4.90;2.80;;;;;;;-128.00;-1.00;-1.00;103215;1253;1005071;-75
2024/02/11 07:11:11;;;;;;;5.30;2.60;;;;;;;-128.00;-1.00;-1.00;103266;1253;1004842;-79
2024/02/11 07:13:39;;;;;;;4.40;2.40;;;;;;;-128.00;-1.00;-1.00;103228;1253;1004666;-75
2024/02/11 07:16:07;;;;;;;5.00;2.90;;;;;;;-128.00;-1.00;-1.00;103212;1253;1004004;-79
2024/02/11 07:18:36;;;;;;;8.70;3.10;;;;;;;-128.00;-1.00;-1.00;103139;1253;1046872;-79
2024/02/11 07:21:03;;;;;;;5.40;2.60;;;;;;;-128.00;-1.00;-1.00;103130;1252;1062319;-75
2024/02/11 07:23:30;;;;;;;5.20;3.10;;;;;;;-128.00;-1.00;-1.00;103122;1253;1004052;-79
2024/02/11 07:25:57;;;;;;;5.60;3.00;;;;;;;-128.00;-1.00;-1.00;103153;1253;1003996;-75
2024/02/11 07:28:24;;;;;;;7.40;4.10;;;;;;;-128.00;-1.00;-1.00;103059;1253;1004455;-74
2024/02/11 07:30:51;;;;;;;7.80;6.00;;;;;;;-128.00;-1.00;-1.00;103228;1253;1005566;-75
2024/02/11 07:33:18;;;;;;;7.30;4.90;;;;;;;-128.00;-1.00;-1.00;103271;1253;1004111;-80
2024/02/11 07:35:46;;;;;;;6.00;2.50;;;;;;;-128.00;-1.00;-1.00;104280;1253;1004383;-79
2024/02/11 07:38:12;;;;;;;8.40;5.30;;;;;;;-128.00;-1.00;-1.00;105733;1251;1004008;-79
2024/02/11 07:40:39;;;;;;;12.50;5.90;;;;;;;-128.00;-1.00;-1.00;105699;1253;1004133;-79
2024/02/11 07:43:06;;;;;;;12.10;7.00;;;;;;;-128.00;-1.00;-1.00;105674;1253;1004534;-79
2024/02/11 07:45:32;;;;;;;16.50;8.10;;;;;;;-128.00;-1.00;-1.00;105657;1252;1005057;-75
2024/02/11 07:47:59;;;;;;;15.30;8.10;;;;;;;-128.00;-1.00;-1.00;104317;1253;1003715;-75
2024/02/11 07:50:25;;;;;;;10.60;6.60;;;;;;;-128.00;-1.00;-1.00;103316;1253;1004446;-79
2024/02/11 07:52:52;;;;;;;5.80;3.70;;;;;;;-128.00;-1.00;-1.00;103357;1257;1004575;-75
2024/02/11 07:55:18;;;;;;;4.80;3.40;;;;;;;-128.00;-1.00;-1.00;103282;1253;1004682;-75
2024/02/11 07:57:46;;;;;;;11.00;4.50;;;;;;;-128.00;-1.00;-1.00;103325;1253;1004774;-79
2024/02/11 08:00:12;;;;;;;6.70;3.10;;;;;;;-128.00;-1.00;-1.00;103254;1252;1003955;-79
2024/02/11 08:02:39;;;;;;;9.50;4.80;;;;;;;-128.00;-1.00;-1.00;103201;1256;1004570;-79
2024/02/11 08:05:06;;;;;;;10.90;8.40;;;;;;;-128.00;-1.00;-1.00;103261;1253;1004352;-75
2024/02/11 08:07:32;;;;;;;6.80;4.90;;;;;;;-128.00;-1.00;-1.00;103283;1252;1004711;-75
2024/02/11 08:09:59;;;;;;;6.10;2.50;;;;;;;-128.00;-1.00;-1.00;103380;1253;1005223;-75
2024/02/11 08:12:26;;;;;;;4.50;2.50;;;;;;;-128.00;-1.00;-1.00;103368;1253;1004195;-74
2024/02/11 08:14:52;;;;;;;5.30;4.60;;;;;;;-128.00;-1.00;-1.00;103285;1253;1004171;-79
2024/02/11 08:17:19;;;;;;;5.80;3.10;;;;;;;-128.00;-1.00;-1.00;103219;1253;1004298;-79
2024/02/11 08:19:47;;;;;;;6.50;3.70;;;;;;;-128.00;-1.00;-1.00;103230;1253;1005013;-75
2024/02/11 08:22:14;;;;;;;14.40;6.10;;;;;;;-128.00;-1.00;-1.00;103335;1253;1004886;-74
2024/02/11 08:24:40;;;;;;;7.90;4.60;;;;;;;-128.00;-1.00;-1.00;103286;1253;1004540;-75
2024/02/11 08:27:08;;;;;;;8.60;3.70;;;;;;;-128.00;-1.00;-1.00;105630;1252;1004056;-79
2024/02/11 08:29:35;;;;;;;7.70;3.90;;;;;;;-128.00;-1.00;-1.00;103270;1256;1003872;-80
2024/02/11 08:32:02;;;;;;;7.80;4.10;;;;;;;-128.00;-1.00;-1.00;103257;1253;1005567;-79
2024/02/11 08:34:29;;;;;;;7.80;4.40;;;;;;;-128.00;-1.00;-1.00;103287;1254;1007299;-75
2024/02/11 08:36:56;;;;;;;10.30;6.20;;;;;;;-128.00;-1.00;-1.00;103300;1253;1004653;-79
2024/02/11 08:39:25;;;;;;;13.00;7.60;;;;;;;-128.00;-1.00;-1.00;103338;1253;1003693;-79
2024/02/11 08:41:52;;;;;;;17.00;11.50;;;;;;;-128.00;-1.00;-1.00;103311;1255;1046425;-75
2024/02/11 08:44:19;;;;;;;12.10;8.40;;;;;;;-128.00;-1.00;-1.00;103310;1251;1004471;-79
2024/02/11 08:46:47;;;;;;;12.10;8.00;;;;;;;-128.00;-1.00;-1.00;103282;1253;1005059;-75
2024/02/11 08:49:14;;;;;;;16.30;8.10;;;;;;;-128.00;-1.00;-1.00;103297;1253;1004865;-75
2024/02/11 08:51:41;;;;;;;11.50;6.50;;;;;;;-128.00;-1.00;-1.00;103294;1253;1004444;-75
2024/02/11 08:54:07;;;;;;;11.90;4.70;;;;;;;-128.00;-1.00;-1.00;103279;1252;1005181;-79
2024/02/11 08:56:34;;;;;;;8.50;4.30;;;;;;;-128.00;-1.00;-1.00;103299;1253;1004434;-75
2024/02/11 08:59:00;;;;;;;6.10;4.20;;;;;;;-128.00;-1.00;-1.00;103274;1252;1004704;-79
2024/02/11 09:01:26;;;;;;;7.90;4.10;;;;;;;-128.00;-1.00;-1.00;103470;1253;1004545;-75
2024/02/11 09:03:53;;;;;;;7.50;4.50;;;;;;;-128.00;-1.00;-1.00;103244;1252;1004917;-80
2024/02/11 09:06:19;;;;;;;7.80;5.20;;;;;;;-128.00;-1.00;-1.00;103284;1253;1003799;-79
2024/02/11 09:08:46;;;;;;;16.10;8.20;;;;;;;-128.00;-1.00;-1.00;103273;1253;1004212;-75
2024/02/11 09:11:15;;;;;;;15.00;8.40;;;;;;;-128.00;-1.00;-1.00;103332;1252;1005390;-75
2024/02/11 09:13:43;;;;;;;15.20;8.20;;;;;;;-128.00;-1.00;-1.00;103273;1253;1059939;-75
2024/02/11 09:16:10;;;;;;;12.90;7.50;;;;;;;-128.00;-1.00;-1.00;103253;1253;1060859;-75
2024/02/11 09:18:37;;;;;;;18.80;10.90;;;;;;;-128.00;-1.00;-1.00;103121;1253;1004840;-75
2024/02/11 09:21:03;;;;;;;14.90;9.50;;;;;;;-128.00;-1.00;-1.00;103211;1253;1005016;-79
2024/02/11 09:23:30;;;;;;;27.80;20.50;;;;;;;-128.00;-1.00;-1.00;103271;1253;1005314;-75
2024/02/11 09:25:56;;;;;;;17.10;10.20;;;;;;;-128.00;-1.00;-1.00;103291;1252;1004183;-79
2024/02/11 09:28:24;;;;;;;17.90;10.60;;;;;;;-128.00;-1.00;-1.00;103310;1253;1004450;-75
2024/02/11 09:30:51;;;;;;;13.20;8.00;;;;;;;-128.00;-1.00;-1.00;103335;1254;1004684;-79
2024/02/11 09:33:17;;;;;;;16.60;8.80;;;;;;;-128.00;-1.00;-1.00;103301;1252;1004658;-79
2024/02/11 09:35:44;;;;;;;32.00;25.00;;;;;;;-128.00;-1.00;-1.00;103282;1253;1004656;-80
2024/02/11 09:38:11;;;;;;;22.40;15.80;;;;;;;-128.00;-1.00;-1.00;103297;1253;1004556;-75
2024/02/11 09:40:38;;;;;;;24.00;20.20;;;;;;;-128.00;-1.00;-1.00;103308;1255;1004965;-75
2024/02/11 09:43:04;;;;;;;66.30;48.20;;;;;;;-128.00;-1.00;-1.00;103235;1253;1003696;-75
2024/02/11 09:45:31;;;;;;;13.00;10.10;;;;;;;-128.00;-1.00;-1.00;103263;1253;1004725;-75
2024/02/11 09:47:58;;;;;;;25.60;21.20;;;;;;;-128.00;-1.00;-1.00;103263;1253;1004589;-79
2024/02/11 09:50:24;;;;;;;10.10;6.50;;;;;;;-128.00;-1.00;-1.00;103337;1253;1003922;-75
2024/02/11 09:52:51;;;;;;;6.80;4.00;;;;;;;-128.00;-1.00;-1.00;103297;1253;1005250;-79
2024/02/11 09:55:20;;;;;;;11.30;5.70;;;;;;;-128.00;-1.00;-1.00;103349;1253;1004216;-75
2024/02/11 09:57:47;;;;;;;13.50;4.70;;;;;;;-128.00;-1.00;-1.00;103341;1251;1046448;-80
2024/02/11 10:00:14;;;;;;;9.80;6.00;;;;;;;-128.00;-1.00;-1.00;103287;1253;1006147;-79
2024/02/11 10:02:42;;;;;;;16.60;10.00;;;;;;;-128.00;-1.00;-1.00;103334;1253;1005307;-75
2024/02/11 10:05:11;;;;;;;24.60;12.60;;;;;;;-128.00;-1.00;-1.00;104711;1253;1005325;-80
2024/02/11 10:07:43;;;;;;;27.30;12.10;;;;;;;-128.00;-1.00;-1.00;105640;1253;1047405;-79
2024/02/11 10:10:14;;;;;;;20.40;11.10;;;;;;;-128.00;-1.00;-1.00;105662;1252;1046506;-75
2024/02/11 10:12:41;;;;;;;29.70;14.90;;;;;;;-128.00;-1.00;-1.00;105600;1253;1061095;-75
2024/02/11 10:15:11;;;;;;;37.00;17.60;;;;;;;-128.00;-1.00;-1.00;105565;1253;1005679;-79
2024/02/11 10:17:37;;;;;;;31.20;19.80;;;;;;;-128.00;-1.00;-1.00;104723;1256;1058908;-79
2024/02/11 10:20:04;;;;;;;33.30;19.20;;;;;;;-128.00;-1.00;-1.00;103248;1253;1003577;-75
2024/02/11 10:22:31;;;;;;;33.40;20.70;;;;;;;-128.00;-1.00;-1.00;103329;1253;1004274;-79
2024/02/11 10:24:57;;;;;;;32.70;22.10;;;;;;;-128.00;-1.00;-1.00;104536;1252;1007104;-80
2024/02/11 10:27:24;;;;;;;36.80;23.90;;;;;;;-128.00;-1.00;-1.00;105658;1253;1004900;-79
2024/02/11 10:29:50;;;;;;;35.20;22.60;;;;;;;-128.00;-1.00;-1.00;105631;1253;1004784;-75
2024/02/11 10:32:17;;;;;;;36.60;24.30;;;;;;;-128.00;-1.00;-1.00;105623;1253;1004552;-75
2024/02/11 10:34:44;;;;;;;43.30;26.60;;;;;;;-128.00;-1.00;-1.00;105660;1253;1003787;-75
2024/02/11 10:37:12;;;;;;;37.50;23.70;;;;;;;-128.00;-1.00;-1.00;105624;1253;1004119;-79
2024/02/11 10:39:42;;;;;;;33.90;22.70;;;;;;;-128.00;-1.00;-1.00;105613;1253;1058793;-75
2024/02/11 10:42:08;;;;;;;38.90;24.00;;;;;;;-128.00;-1.00;-1.00;105629;1253;1060081;-75
2024/02/11 10:44:38;;;;;;;21.60;15.90;;;;;;;-128.00;-1.00;-1.00;105664;1252;1004567;-75
2024/02/11 10:47:07;;;;;;;21.60;15.80;;;;;;;-128.00;-1.00;-1.00;105709;1253;1047493;-75
2024/02/11 10:49:34;;;;;;;28.30;17.60;;;;;;;-128.00;-1.00;-1.00;105661;1253;1061752;-79
2024/02/11 10:52:07;;;;;;;33.50;22.30;;;;;;;-128.00;-1.00;-1.00;105679;1252;1004344;-80
2024/02/11 10:54:43;;;;;;;22.00;14.00;;;;;;;-128.00;-1.00;-1.00;105657;1253;1059424;-79
2024/02/11 10:57:14;;;;;;;17.50;11.50;;;;;;;-128.00;-1.00;-1.00;105629;1252;1045547;-75
2024/02/11 10:59:50;;;;;;;23.90;14.50;;;;;;;-128.00;-1.00;-1.00;105568;1253;1046474;-80
2024/02/11 11:02:16;;;;;;;14.00;7.90;;;;;;;-128.00;-1.00;-1.00;105574;1253;1061574;-75
2024/02/11 11:04:43;;;;;;;13.20;7.00;;;;;;;-128.00;-1.00;-1.00;105675;1253;1004456;-79
2024/02/11 11:07:12;;;;;;;12.70;10.20;;;;;;;-128.00;-1.00;-1.00;105553;1253;1004272;-80
2024/02/11 11:09:39;;;;;;;11.80;7.10;;;;;;;-128.00;-1.00;-1.00;105644;1252;1047333;-79
2024/02/11 11:12:09;;;;;;;7.30;5.00;;;;;;;-128.00;-1.00;-1.00;104752;1253;1004181;-81